Time;durP1;ratioP1;P1;durP2;ratioP2;P2;SDS_P1;SDS_P2;PMS_P1;PMS_P2;Temp;Humidity;BMP_temperature;BMP_pressure;BME280_temperature;BME280_humidity;BME280_pressure;Samples;Min_cycle;Max_cycle;Signal;HPM_P1;HPM_P2
2022/01/31 00:01:26;;;;;;;5.30;4.20;;;;;;;;;;5018619;28;20041;-59
2022/01/31 00:03:51;;;;;;;4.65;3.78;;;;;;;;;;5021339;28;20420;-59
2022/01/31 00:06:17;;;;;;;8.48;4.65;;;;;;;;;;5025394;28;20038;-60
2022/01/31 00:08:42;;;;;;;7.10;4.65;;;;;;;;;;5021431;28;20042;-59
2022/01/31 00:11:08;;;;;;;5.55;3.88;;;;;;;;;;5022598;28;20037;-59
2022/01/31 00:13:41;;;;;;;5.18;3.67;;;;;;;;;;5023457;28;20033;-60
2022/01/31 00:16:09;;;;;;;4.32;3.78;;;;;;;;;;5023026;28;20044;-58
2022/01/31 00:18:35;;;;;;;9.02;4.78;;;;;;;;;;5019835;28;20051;-60
2022/01/31 00:21:00;;;;;;;10.00;4.05;;;;;;;;;;5020824;28;20025;-60
2022/01/31 00:23:26;;;;;;;7.35;4.30;;;;;;;;;;5020701;28;20034;-60
2022/01/31 00:25:51;;;;;;;4.95;3.60;;;;;;;;;;5022566;28;20029;-60
2022/01/31 00:28:17;;;;;;;4.75;4.18;;;;;;;;;;5020839;28;20121;-60
2022/01/31 00:30:42;;;;;;;4.82;4.38;;;;;;;;;;5021521;28;20080;-60
2022/01/31 00:33:08;;;;;;;4.50;4.10;;;;;;;;;;5021404;28;20504;-58
2022/01/31 00:35:33;;;;;;;5.03;3.85;;;;;;;;;;5022388;28;20344;-60
2022/01/31 00:37:59;;;;;;;12.15;4.40;;;;;;;;;;5023660;28;20068;-60
2022/01/31 00:40:25;;;;;;;3.30;3.00;;;;;;;;;;5024026;28;20033;-58
2022/01/31 00:42:50;;;;;;;5.10;3.90;;;;;;;;;;5019511;28;20553;-58
2022/01/31 00:45:22;;;;;;;8.18;4.13;;;;;;;;;;5021075;28;20038;-58
2022/01/31 00:47:58;;;;;;;4.20;3.50;;;;;;;;;;5020689;28;20041;-58
2022/01/31 00:50:24;;;;;;;4.55;3.92;;;;;;;;;;5021023;28;20530;-59
2022/01/31 00:52:49;;;;;;;5.03;4.53;;;;;;;;;;5019920;28;20025;-58
2022/01/31 00:55:14;;;;;;;6.20;4.07;;;;;;;;;;5019382;28;20512;-58
2022/01/31 00:57:40;;;;;;;7.55;4.90;;;;;;;;;;5018445;28;20510;-58
2022/01/31 01:00:07;;;;;;;4.15;3.75;;;;;;;;;;5020424;28;20030;-58
2022/01/31 01:02:32;;;;;;;5.65;4.18;;;;;;;;;;5019510;28;20503;-58
2022/01/31 01:04:58;;;;;;;4.70;3.67;;;;;;;;;;5018743;28;20037;-58
2022/01/31 01:07:23;;;;;;;5.30;3.50;;;;;;;;;;5019715;28;20037;-58
2022/01/31 01:09:49;;;;;;;3.45;3.10;;;;;;;;;;5024777;28;20099;-59
2022/01/31 01:12:16;;;;;;;4.05;3.58;;;;;;;;;;5023017;28;20035;-59
2022/01/31 01:14:42;;;;;;;3.70;3.40;;;;;;;;;;5021684;28;20040;-60
2022/01/31 01:17:07;;;;;;;3.42;3.13;;;;;;;;;;5020665;28;20030;-60
2022/01/31 01:19:33;;;;;;;6.38;4.18;;;;;;;;;;5019956;28;20124;-60
2022/01/31 01:21:58;;;;;;;3.80;3.35;;;;;;;;;;5020780;28;20116;-59
2022/01/31 01:24:24;;;;;;;4.47;3.55;;;;;;;;;;5020628;28;20120;-60
2022/01/31 01:26:49;;;;;;;4.32;3.75;;;;;;;;;;5020555;28;20460;-59
2022/01/31 01:29:15;;;;;;;3.05;2.75;;;;;;;;;;5020574;28;20038;-60
2022/01/31 01:31:44;;;;;;;6.50;3.90;;;;;;;;;;5022333;28;20033;-60
2022/01/31 01:34:09;;;;;;;5.05;4.07;;;;;;;;;;5021608;28;20061;-59
2022/01/31 01:36:35;;;;;;;3.67;3.10;;;;;;;;;;5020858;28;20427;-60
2022/01/31 01:39:00;;;;;;;10.77;4.45;;;;;;;;;;5022166;28;20037;-60
2022/01/31 01:41:26;;;;;;;4.05;3.65;;;;;;;;;;5021552;28;20037;-60
2022/01/31 01:43:51;;;;;;;5.53;4.00;;;;;;;;;;5021827;28;20032;-60
2022/01/31 01:46:17;;;;;;;6.20;3.75;;;;;;;;;;5019846;28;20111;-60
2022/01/31 01:48:42;;;;;;;3.35;3.03;;;;;;;;;;5020730;28;20588;-59
2022/01/31 01:51:07;;;;;;;3.88;3.50;;;;;;;;;;5019734;28;20022;-60
2022/01/31 01:53:33;;;;;;;6.45;3.25;;;;;;;;;;5019260;28;20044;-59
2022/01/31 01:55:58;;;;;;;4.05;3.63;;;;;;;;;;5019992;28;20037;-60
2022/01/31 01:58:26;;;;;;;3.50;3.20;;;;;;;;;;5021542;28;20475;-60
2022/01/31 02:00:59;;;;;;;3.90;3.60;;;;;;;;;;5019879;28;20199;-59
2022/01/31 02:03:27;;;;;;;4.00;3.60;;;;;;;;;;5016006;28;20081;-60
2022/01/31 02:05:53;;;;;;;4.13;3.67;;;;;;;;;;5023280;28;20025;-60
2022/01/31 02:08:19;;;;;;;6.20;4.10;;;;;;;;;;5019264;28;20371;-60
2022/01/31 02:10:46;;;;;;;3.90;3.50;;;;;;;;;;5018868;28;20029;-60
2022/01/31 02:13:12;;;;;;;6.90;4.15;;;;;;;;;;5016572;28;20088;-59
2022/01/31 02:15:38;;;;;;;6.65;5.38;;;;;;;;;;5019004;28;20111;-60
2022/01/31 02:18:04;;;;;;;3.92;3.63;;;;;;;;;;5019743;28;20459;-59
2022/01/31 02:20:30;;;;;;;3.85;3.45;;;;;;;;;;5018264;28;20087;-59
2022/01/31 02:22:57;;;;;;;4.68;4.28;;;;;;;;;;5018923;28;20063;-59
2022/01/31 02:25:22;;;;;;;6.60;4.55;;;;;;;;;;5015184;28;20542;-59
2022/01/31 02:27:47;;;;;;;4.28;3.88;;;;;;;;;;5020031;28;20104;-59
2022/01/31 02:30:15;;;;;;;6.43;3.78;;;;;;;;;;5022764;28;20030;-59
2022/01/31 02:32:41;;;;;;;4.35;3.83;;;;;;;;;;5017616;28;20034;-59
2022/01/31 02:35:07;;;;;;;4.35;3.90;;;;;;;;;;5020419;28;20049;-59
2022/01/31 02:37:33;;;;;;;4.28;3.72;;;;;;;;;;5016907;28;20042;-59
2022/01/31 02:39:58;;;;;;;5.95;4.03;;;;;;;;;;5017909;28;20136;-59
2022/01/31 02:42:24;;;;;;;5.55;4.40;;;;;;;;;;5018124;28;20150;-59
2022/01/31 02:44:49;;;;;;;6.72;4.43;;;;;;;;;;5019704;28;20029;-59
2022/01/31 02:47:25;;;;;;;4.80;4.38;;;;;;;;;;5019534;28;20030;-59
2022/01/31 02:50:02;;;;;;;4.63;4.22;;;;;;;;;;5020312;28;20043;-59
2022/01/31 02:52:31;;;;;;;4.45;4.05;;;;;;;;;;5019797;28;20429;-59
2022/01/31 02:54:57;;;;;;;4.35;3.95;;;;;;;;;;5019243;28;20026;-59
2022/01/31 02:57:23;;;;;;;3.72;3.35;;;;;;;;;;5021674;28;20049;-59
2022/01/31 02:59:48;;;;;;;4.47;4.07;;;;;;;;;;5020204;28;20103;-59
2022/01/31 03:02:14;;;;;;;6.28;5.00;;;;;;;;;;5014524;28;20033;-59
2022/01/31 03:04:40;;;;;;;7.22;4.22;;;;;;;;;;5018375;28;20295;-59
2022/01/31 03:07:05;;;;;;;4.50;4.10;;;;;;;;;;5017229;28;20079;-59
2022/01/31 03:09:31;;;;;;;6.30;3.80;;;;;;;;;;5015882;28;20062;-59
2022/01/31 03:11:56;;;;;;;4.30;3.90;;;;;;;;;;5019627;28;20451;-59
2022/01/31 03:14:22;;;;;;;4.15;3.75;;;;;;;;;;5018588;28;20537;-58
2022/01/31 03:16:48;;;;;;;14.20;4.35;;;;;;;;;;5018594;28;20112;-58
2022/01/31 03:19:15;;;;;;;3.75;3.45;;;;;;;;;;5019746;28;20057;-58
2022/01/31 03:21:40;;;;;;;4.15;3.75;;;;;;;;;;5020222;28;20352;-59
2022/01/31 03:24:07;;;;;;;3.70;3.30;;;;;;;;;;5017608;28;20040;-58
2022/01/31 03:26:32;;;;;;;9.95;4.72;;;;;;;;;;5018311;28;20926;-59
2022/01/31 03:28:58;;;;;;;4.03;3.72;;;;;;;;;;5020962;28;20042;-59
2022/01/31 03:31:24;;;;;;;6.07;4.85;;;;;;;;;;5020061;28;20034;-59
2022/01/31 03:33:50;;;;;;;6.55;3.70;;;;;;;;;;5017622;28;20045;-58
2022/01/31 03:36:16;;;;;;;5.18;4.78;;;;;;;;;;5018340;28;20052;-59
2022/01/31 03:38:42;;;;;;;4.35;3.78;;;;;;;;;;5020500;28;20399;-59
2022/01/31 03:41:08;;;;;;;4.68;4.15;;;;;;;;;;5019707;28;20030;-59
2022/01/31 03:43:34;;;;;;;4.95;4.13;;;;;;;;;;5019671;28;20526;-59
2022/01/31 03:45:59;;;;;;;4.40;4.00;;;;;;;;;;5017434;28;20029;-59
2022/01/31 03:48:27;;;;;;;5.47;4.97;;;;;;;;;;5015237;28;20129;-58
2022/01/31 03:50:53;;;;;;;4.20;3.88;;;;;;;;;;5018564;28;20079;-59
2022/01/31 03:53:18;;;;;;;13.45;4.15;;;;;;;;;;5020361;28;20038;-59
2022/01/31 03:55:43;;;;;;;5.32;4.10;;;;;;;;;;5016537;28;20879;-59
2022/01/31 03:58:09;;;;;;;3.95;3.55;;;;;;;;;;5019745;28;20120;-59
2022/01/31 04:00:34;;;;;;;20.17;5.13;;;;;;;;;;5016514;28;20033;-59
2022/01/31 04:02:59;;;;;;;4.68;4.28;;;;;;;;;;5016576;28;20038;-59
2022/01/31 04:05:25;;;;;;;4.85;4.45;;;;;;;;;;5020631;28;20543;-59
2022/01/31 04:07:50;;;;;;;4.38;3.97;;;;;;;;;;5017438;28;20044;-59
2022/01/31 04:10:16;;;;;;;4.72;4.32;;;;;;;;;;5026236;28;20033;-59
2022/01/31 04:12:41;;;;;;;4.78;4.38;;;;;;;;;;5019964;28;20091;-59
2022/01/31 04:15:07;;;;;;;3.95;3.58;;;;;;;;;;5017428;28;20030;-59
2022/01/31 04:17:33;;;;;;;4.25;3.88;;;;;;;;;;5016410;28;20072;-59
2022/01/31 04:19:58;;;;;;;4.28;3.88;;;;;;;;;;5016303;28;20040;-59
2022/01/31 04:22:27;;;;;;;4.60;4.20;;;;;;;;;;5016787;28;20038;-58
2022/01/31 04:24:58;;;;;;;4.60;3.90;;;;;;;;;;5021347;28;21085;-59
2022/01/31 04:27:27;;;;;;;4.13;3.72;;;;;;;;;;5017572;28;20073;-59
2022/01/31 04:29:53;;;;;;;4.50;4.10;;;;;;;;;;5016660;28;20030;-59
2022/01/31 04:32:18;;;;;;;4.00;3.60;;;;;;;;;;5017965;28;20645;-59
2022/01/31 04:34:44;;;;;;;4.20;3.80;;;;;;;;;;5016520;28;20042;-59
2022/01/31 04:37:10;;;;;;;3.85;3.53;;;;;;;;;;5016466;28;20026;-59
2022/01/31 04:39:36;;;;;;;6.80;4.72;;;;;;;;;;5019172;28;20033;-59
2022/01/31 04:42:02;;;;;;;4.65;4.20;;;;;;;;;;5018179;28;20029;-59
2022/01/31 04:44:27;;;;;;;7.68;4.65;;;;;;;;;;5014889;28;20045;-59
2022/01/31 04:46:54;;;;;;;4.45;4.05;;;;;;;;;;5018866;28;20029;-59
2022/01/31 04:49:20;;;;;;;5.38;4.22;;;;;;;;;;5018759;28;20179;-59
2022/01/31 04:51:46;;;;;;;4.55;4.15;;;;;;;;;;5023815;28;20104;-59
2022/01/31 04:54:12;;;;;;;6.80;4.43;;;;;;;;;;5022810;28;20092;-59
2022/01/31 04:56:40;;;;;;;4.10;3.78;;;;;;;;;;5021369;28;20104;-59
2022/01/31 04:59:05;;;;;;;5.95;4.20;;;;;;;;;;5021049;28;20036;-59
2022/01/31 05:01:31;;;;;;;5.07;4.57;;;;;;;;;;5021123;28;20448;-60
2022/01/31 05:03:57;;;;;;;3.58;3.28;;;;;;;;;;5020672;28;20029;-60
2022/01/31 05:06:29;;;;;;;4.28;3.58;;;;;;;;;;5019657;28;20029;-60
2022/01/31 05:08:54;;;;;;;4.03;3.63;;;;;;;;;;5025348;28;20038;-59
2022/01/31 05:11:20;;;;;;;4.13;3.22;;;;;;;;;;5021795;28;20084;-60
2022/01/31 05:13:46;;;;;;;4.47;4.07;;;;;;;;;;5023623;28;20030;-61
2022/01/31 05:16:11;;;;;;;4.13;3.72;;;;;;;;;;5020593;28;20106;-60
2022/01/31 05:18:37;;;;;;;6.57;4.22;;;;;;;;;;5026228;28;20033;-60
2022/01/31 05:21:04;;;;;;;4.15;3.78;;;;;;;;;;5018787;28;20041;-60
2022/01/31 05:23:29;;;;;;;4.03;3.65;;;;;;;;;;5021493;28;20033;-58
2022/01/31 05:25:55;;;;;;;5.18;4.35;;;;;;;;;;5023602;28;20364;-58
2022/01/31 05:28:20;;;;;;;4.40;4.00;;;;;;;;;;5019534;28;20079;-58
2022/01/31 05:30:46;;;;;;;6.13;3.63;;;;;;;;;;5018965;28;20506;-58
2022/01/31 05:33:11;;;;;;;4.53;4.13;;;;;;;;;;5018618;28;20129;-58
2022/01/31 05:35:36;;;;;;;4.32;3.92;;;;;;;;;;5022629;28;20529;-58
2022/01/31 05:38:02;;;;;;;3.85;3.42;;;;;;;;;;5022867;28;20549;-58
2022/01/31 05:40:28;;;;;;;4.35;3.95;;;;;;;;;;5020776;28;20045;-58
2022/01/31 05:42:54;;;;;;;4.28;3.88;;;;;;;;;;5021137;28;20021;-58
2022/01/31 05:45:19;;;;;;;17.48;4.03;;;;;;;;;;5020210;28;20125;-58
2022/01/31 05:47:45;;;;;;;4.10;3.70;;;;;;;;;;5021012;28;20044;-58
2022/01/31 05:50:10;;;;;;;4.75;4.28;;;;;;;;;;5021573;28;20044;-58
2022/01/31 05:52:36;;;;;;;3.78;3.45;;;;;;;;;;5022361;28;20026;-58
2022/01/31 05:55:02;;;;;;;6.05;3.83;;;;;;;;;;5019314;28;20045;-58
2022/01/31 05:57:27;;;;;;;4.80;4.38;;;;;;;;;;5020143;28;20041;-59
2022/01/31 05:59:53;;;;;;;5.05;4.35;;;;;;;;;;5018888;28;20083;-58
2022/01/31 06:02:18;;;;;;;3.95;3.65;;;;;;;;;;5019737;28;20033;-58
2022/01/31 06:04:44;;;;;;;4.97;4.57;;;;;;;;;;5020492;28;20045;-56
2022/01/31 06:07:09;;;;;;;4.72;3.83;;;;;;;;;;5020459;28;20025;-57
2022/01/31 06:09:36;;;;;;;11.25;4.57;;;;;;;;;;5020890;28;20549;-57
2022/01/31 06:12:02;;;;;;;5.97;4.68;;;;;;;;;;5021757;28;20025;-59
2022/01/31 06:14:29;;;;;;;4.93;4.43;;;;;;;;;;5021552;28;20459;-57
2022/01/31 06:16:54;;;;;;;3.97;3.63;;;;;;;;;;5019858;28;20143;-57
2022/01/31 06:19:19;;;;;;;4.03;3.70;;;;;;;;;;5020336;28;20120;-58
2022/01/31 06:21:45;;;;;;;3.97;3.60;;;;;;;;;;5020344;28;20037;-57
2022/01/31 06:24:11;;;;;;;4.45;4.00;;;;;;;;;;5011824;28;20029;-58
2022/01/31 06:26:40;;;;;;;3.47;3.17;;;;;;;;;;5019361;28;20729;-57
2022/01/31 06:29:05;;;;;;;7.68;4.05;;;;;;;;;;5015908;28;20060;-58
2022/01/31 06:31:32;;;;;;;4.38;3.97;;;;;;;;;;5020803;28;20030;-58
2022/01/31 06:33:58;;;;;;;10.40;3.88;;;;;;;;;;5020333;28;20049;-59
2022/01/31 06:36:23;;;;;;;3.80;3.50;;;;;;;;;;5018627;28;20336;-58
2022/01/31 06:38:52;;;;;;;4.00;3.58;;;;;;;;;;5020358;28;20029;-58
2022/01/31 06:41:19;;;;;;;4.32;3.92;;;;;;;;;;5018062;28;20099;-58
2022/01/31 06:43:45;;;;;;;3.80;3.50;;;;;;;;;;5018287;28;20049;-58
2022/01/31 06:46:12;;;;;;;5.38;3.88;;;;;;;;;;5023506;28;20073;-58
2022/01/31 06:48:38;;;;;;;4.32;3.92;;;;;;;;;;5018302;28;20025;-58
2022/01/31 06:51:03;;;;;;;4.55;4.15;;;;;;;;;;5018401;28;20026;-58
2022/01/31 06:53:29;;;;;;;4.18;3.72;;;;;;;;;;5018748;28;20048;-58
2022/01/31 06:55:55;;;;;;;3.63;3.30;;;;;;;;;;5020957;28;20111;-58
2022/01/31 06:58:21;;;;;;;5.25;4.15;;;;;;;;;;5020385;28;20412;-59
2022/01/31 07:00:47;;;;;;;3.47;3.17;;;;;;;;;;5017475;28;20072;-58
2022/01/31 07:03:13;;;;;;;4.35;3.95;;;;;;;;;;5019427;28;20463;-58
2022/01/31 07:05:43;;;;;;;3.83;3.53;;;;;;;;;;5020595;28;20582;-58
2022/01/31 07:08:09;;;;;;;3.42;3.13;;;;;;;;;;5019898;28;20742;-58
2022/01/31 07:10:36;;;;;;;5.22;3.67;;;;;;;;;;5022960;28;20034;-58
2022/01/31 07:13:03;;;;;;;4.82;4.10;;;;;;;;;;5020084;28;20079;-58
2022/01/31 07:15:29;;;;;;;4.30;3.88;;;;;;;;;;5021530;28;20100;-57
2022/01/31 07:17:54;;;;;;;5.32;3.40;;;;;;;;;;5016992;28;20108;-58
2022/01/31 07:20:34;;;;;;;3.30;3.00;;;;;;;;;;5022202;28;20546;-59
2022/01/31 07:23:03;;;;;;;3.55;3.25;;;;;;;;;;5017502;28;20025;-58
2022/01/31 07:25:35;;;;;;;3.83;3.45;;;;;;;;;;5016710;28;20725;-58
2022/01/31 07:28:20;;;;;;;3.92;3.63;;;;;;;;;;5017437;28;20422;-58
2022/01/31 07:30:48;;;;;;;3.33;3.03;;;;;;;;;;5018281;28;20048;-58
2022/01/31 07:33:14;;;;;;;4.00;3.35;;;;;;;;;;5019348;28;20037;-58
2022/01/31 07:35:45;;;;;;;4.35;3.95;;;;;;;;;;5010170;28;20033;-59
2022/01/31 07:38:11;;;;;;;3.35;3.05;;;;;;;;;;5020067;28;20041;-62
2022/01/31 07:40:37;;;;;;;3.35;3.05;;;;;;;;;;5016199;28;20036;-59
2022/01/31 07:43:03;;;;;;;4.70;4.30;;;;;;;;;;5016716;28;20038;-58
2022/01/31 07:45:28;;;;;;;3.08;2.78;;;;;;;;;;5018460;28;20604;-59
2022/01/31 07:47:54;;;;;;;3.47;3.17;;;;;;;;;;5018068;28;20034;-59
2022/01/31 07:50:19;;;;;;;3.92;3.53;;;;;;;;;;5016811;28;20033;-59
2022/01/31 07:52:45;;;;;;;3.50;3.20;;;;;;;;;;5016180;28;20034;-58
2022/01/31 07:55:11;;;;;;;3.75;3.35;;;;;;;;;;5018154;28;20037;-58
2022/01/31 07:57:38;;;;;;;3.60;3.30;;;;;;;;;;5017876;28;20058;-58
2022/01/31 08:00:06;;;;;;;3.33;3.03;;;;;;;;;;5018857;28;20030;-58
2022/01/31 08:02:31;;;;;;;3.85;3.45;;;;;;;;;;5016913;28;20133;-58
2022/01/31 08:04:57;;;;;;;3.50;3.20;;;;;;;;;;5016527;28;20113;-59
2022/01/31 08:07:22;;;;;;;3.50;3.20;;;;;;;;;;5018998;28;20038;-58
2022/01/31 08:09:48;;;;;;;3.45;3.15;;;;;;;;;;5019647;28;20088;-58
2022/01/31 08:12:13;;;;;;;4.03;3.67;;;;;;;;;;5015935;28;20037;-59
2022/01/31 08:14:39;;;;;;;3.85;3.47;;;;;;;;;;5016254;28;20038;-58
2022/01/31 08:17:04;;;;;;;3.70;3.40;;;;;;;;;;5017128;28;20036;-58
2022/01/31 08:19:30;;;;;;;3.78;3.33;;;;;;;;;;5015938;28;20106;-58
2022/01/31 08:21:55;;;;;;;3.50;3.15;;;;;;;;;;5018384;28;20036;-58
2022/01/31 08:24:21;;;;;;;3.50;3.20;;;;;;;;;;5016804;28;20447;-58
2022/01/31 08:26:46;;;;;;;3.83;3.53;;;;;;;;;;5020058;28;20042;-58
2022/01/31 08:29:34;;;;;;;3.42;3.13;;;;;;;;;;5020633;28;20049;-58
2022/01/31 08:32:05;;;;;;;4.15;3.08;;;;;;;;;;5023045;28;20025;-59
2022/01/31 08:37:15;;;;;;;4.10;3.70;;;;;;;;;;5020571;28;20029;-58
2022/01/31 08:39:41;;;;;;;3.75;3.45;;;;;;;;;;5022994;28;20542;-59
2022/01/31 08:42:07;;;;;;;3.42;3.13;;;;;;;;;;5023409;28;20052;-58
2022/01/31 08:44:32;;;;;;;3.55;3.25;;;;;;;;;;5023274;28;20383;-58
2022/01/31 08:46:58;;;;;;;3.38;3.08;;;;;;;;;;5018534;28;20034;-59
2022/01/31 08:49:23;;;;;;;3.53;3.22;;;;;;;;;;5019194;28;20037;-60
2022/01/31 08:51:49;;;;;;;3.67;3.38;;;;;;;;;;5020420;28;20119;-59
2022/01/31 08:54:15;;;;;;;3.20;2.90;;;;;;;;;;5020305;28;20133;-59
2022/01/31 08:56:44;;;;;;;3.83;3.42;;;;;;;;;;5020665;28;20030;-58
2022/01/31 08:59:17;;;;;;;3.40;3.10;;;;;;;;;;5022062;28;20025;-58
2022/01/31 09:01:43;;;;;;;3.42;3.13;;;;;;;;;;5019647;28;20033;-59
2022/01/31 09:04:12;;;;;;;3.63;3.33;;;;;;;;;;5021006;28;20037;-59
2022/01/31 09:06:37;;;;;;;3.20;2.90;;;;;;;;;;5019465;28;20378;-59
2022/01/31 09:09:06;;;;;;;4.22;3.83;;;;;;;;;;5020096;28;20030;-59
2022/01/31 09:11:31;;;;;;;3.60;3.30;;;;;;;;;;5021385;28;20102;-59
2022/01/31 09:13:59;;;;;;;3.72;3.33;;;;;;;;;;5020301;28;20033;-58
2022/01/31 09:16:24;;;;;;;3.17;2.88;;;;;;;;;;5021745;28;20033;-59
2022/01/31 09:18:50;;;;;;;3.33;2.97;;;;;;;;;;5019544;28;20064;-59
2022/01/31 09:21:16;;;;;;;3.58;3.28;;;;;;;;;;5021258;28;20029;-58
2022/01/31 09:23:41;;;;;;;3.65;3.22;;;;;;;;;;5021043;28;20037;-58
2022/01/31 09:26:07;;;;;;;3.30;3.00;;;;;;;;;;5021014;28;20037;-58
2022/01/31 09:28:32;;;;;;;3.30;3.00;;;;;;;;;;5020219;28;20455;-58
2022/01/31 09:30:58;;;;;;;3.55;3.20;;;;;;;;;;5019600;28;20404;-58
2022/01/31 09:33:25;;;;;;;3.38;3.08;;;;;;;;;;5021867;28;20517;-58
2022/01/31 09:35:51;;;;;;;3.47;3.17;;;;;;;;;;5019674;28;20067;-58
2022/01/31 09:38:21;;;;;;;3.97;3.58;;;;;;;;;;5018148;28;20116;-58
2022/01/31 09:40:47;;;;;;;3.25;2.95;;;;;;;;;;5018100;28;20052;-57
2022/01/31 09:45:56;;;;;;;3.80;3.42;;;;;;;;;;5022038;28;20369;-58
2022/01/31 09:48:38;;;;;;;4.03;3.63;;;;;;;;;;5020071;28;20541;-58
2022/01/31 09:51:06;;;;;;;3.42;3.13;;;;;;;;;;5019986;28;20095;-58
2022/01/31 09:53:37;;;;;;;3.40;3.10;;;;;;;;;;5021326;28;20037;-58
2022/01/31 09:56:08;;;;;;;3.60;3.30;;;;;;;;;;5020726;28;20034;-59
2022/01/31 09:58:34;;;;;;;3.65;3.35;;;;;;;;;;5022844;28;20030;-60
2022/01/31 10:01:15;;;;;;;3.80;3.47;;;;;;;;;;5019943;28;20091;-59
2022/01/31 10:03:45;;;;;;;3.75;3.45;;;;;;;;;;5022113;28;20030;-59
2022/01/31 10:06:21;;;;;;;3.63;3.33;;;;;;;;;;5018255;28;20033;-59
2022/01/31 10:08:48;;;;;;;3.55;3.25;;;;;;;;;;5021189;28;20033;-59
2022/01/31 10:11:37;;;;;;;3.38;3.08;;;;;;;;;;5019519;28;20030;-59
2022/01/31 10:16:59;;;;;;;3.35;3.05;;;;;;;;;;5019928;28;20068;-59
2022/01/31 10:19:24;;;;;;;3.58;3.28;;;;;;;;;;5018971;28;20026;-59
2022/01/31 10:22:03;;;;;;;3.67;3.38;;;;;;;;;;5018826;28;20037;-60
2022/01/31 10:24:30;;;;;;;3.33;3.03;;;;;;;;;;5018087;28;20080;-59
2022/01/31 10:26:56;;;;;;;3.53;3.22;;;;;;;;;;5019844;28;20037;-60
2022/01/31 10:29:24;;;;;;;3.72;3.42;;;;;;;;;;5018033;28;20503;-60
2022/01/31 10:31:57;;;;;;;4.18;3.78;;;;;;;;;;5018924;28;20510;-60
2022/01/31 10:34:25;;;;;;;3.75;3.45;;;;;;;;;;5018730;28;20188;-59
2022/01/31 10:36:51;;;;;;;3.45;3.15;;;;;;;;;;5021423;28;20048;-59
2022/01/31 10:45:32;;;;;;;4.13;3.83;;;;;;;;;;5017068;28;20167;-60
2022/01/31 10:51:33;;;;;;;3.97;3.67;;;;;;;;;;5019046;28;20072;-59
2022/01/31 10:54:02;;;;;;;3.38;3.08;;;;;;;;;;5020132;28;20083;-60
2022/01/31 10:56:39;;;;;;;3.47;3.17;;;;;;;;;;5021514;28;20481;-60
2022/01/31 10:59:11;;;;;;;3.60;3.30;;;;;;;;;;5018694;28;20040;-59
2022/01/31 11:01:38;;;;;;;3.53;3.22;;;;;;;;;;5018644;28;20513;-58
2022/01/31 11:04:12;;;;;;;3.60;3.30;;;;;;;;;;5016096;28;20038;-59
2022/01/31 11:06:40;;;;;;;3.83;3.53;;;;;;;;;;5015772;28;20036;-59
2022/01/31 11:09:11;;;;;;;6.68;3.90;;;;;;;;;;5020092;28;20080;-59
2022/01/31 11:11:38;;;;;;;3.85;3.55;;;;;;;;;;5020814;28;20026;-59
2022/01/31 11:14:06;;;;;;;3.97;3.67;;;;;;;;;;5022114;28;20053;-59
2022/01/31 11:16:33;;;;;;;4.57;4.15;;;;;;;;;;5017586;28;20041;-60
2022/01/31 11:19:02;;;;;;;4.55;4.15;;;;;;;;;;5020463;28;20404;-60
2022/01/31 11:21:31;;;;;;;3.67;3.38;;;;;;;;;;5019234;28;20125;-60
2022/01/31 11:24:07;;;;;;;4.05;3.75;;;;;;;;;;5019257;28;20041;-60
2022/01/31 11:26:36;;;;;;;3.97;3.67;;;;;;;;;;5015554;28;20096;-60
2022/01/31 11:29:03;;;;;;;3.75;3.42;;;;;;;;;;5015797;28;20100;-60
2022/01/31 11:31:29;;;;;;;3.80;3.50;;;;;;;;;;5019092;28;20038;-60
2022/01/31 11:33:58;;;;;;;3.78;3.47;;;;;;;;;;5014239;28;20029;-61
2022/01/31 11:36:23;;;;;;;4.15;3.85;;;;;;;;;;5019916;28;20044;-60
2022/01/31 11:38:50;;;;;;;3.47;3.17;;;;;;;;;;5017591;28;20120;-60
2022/01/31 11:41:16;;;;;;;3.90;3.60;;;;;;;;;;5017593;28;20091;-60
2022/01/31 11:43:51;;;;;;;4.03;3.72;;;;;;;;;;5020038;28;20029;-60
2022/01/31 11:46:23;;;;;;;3.97;3.58;;;;;;;;;;5018153;28;20038;-59
2022/01/31 11:48:48;;;;;;;4.25;3.85;;;;;;;;;;5019589;28;20042;-61
2022/01/31 11:51:14;;;;;;;3.88;3.58;;;;;;;;;;5017799;28;20091;-61
2022/01/31 11:53:39;;;;;;;3.20;2.90;;;;;;;;;;5018012;28;20040;-60
2022/01/31 11:56:17;;;;;;;3.83;3.53;;;;;;;;;;5019624;28;20451;-62
2022/01/31 11:58:45;;;;;;;8.63;3.45;;;;;;;;;;5019764;28;20041;-61
2022/01/31 12:01:11;;;;;;;3.50;3.20;;;;;;;;;;5021939;28;20038;-61
2022/01/31 12:03:49;;;;;;;3.63;3.33;;;;;;;;;;5021010;28;20030;-61
2022/01/31 12:06:21;;;;;;;3.83;3.53;;;;;;;;;;5025102;28;20042;-61
2022/01/31 12:08:47;;;;;;;;;;;;;;;;;;5020992;28;20029;-61
2022/01/31 12:11:17;;;;;;;3.80;3.50;;;;;;;;;;5025478;28;19948;-61
2022/01/31 12:13:52;;;;;;;3.97;3.67;;;;;;;;;;5019820;28;20049;-61
2022/01/31 12:17:08;;;;;;;3.55;3.25;;;;;;;;;;5020624;28;20033;-60
2022/01/31 12:19:59;;;;;;;3.45;3.15;;;;;;;;;;5018447;28;20451;-60
2022/01/31 12:22:40;;;;;;;3.53;3.22;;;;;;;;;;5021695;28;20049;-61
2022/01/31 12:25:22;;;;;;;5.90;5.35;;;;;;;;;;5019388;28;20099;-62
2022/01/31 12:27:47;;;;;;;3.33;3.03;;;;;;;;;;5020639;28;20356;-61
2022/01/31 12:30:29;;;;;;;3.13;2.83;;;;;;;;;;5021179;28;20030;-61
2022/01/31 12:32:54;;;;;;;3.30;3.00;;;;;;;;;;5018800;28;20029;-61
2022/01/31 12:35:31;;;;;;;3.35;3.05;;;;;;;;;;5022718;28;20103;-61
2022/01/31 12:37:56;;;;;;;3.92;3.63;;;;;;;;;;5022519;28;20042;-61
2022/01/31 12:40:29;;;;;;;5.63;3.20;;;;;;;;;;5018672;28;20041;-61
2022/01/31 12:45:43;;;;;;;3.10;2.80;;;;;;;;;;5021692;28;20041;-60
2022/01/31 12:48:19;;;;;;;3.42;3.13;;;;;;;;;;5022416;28;20034;-60
2022/01/31 12:50:45;;;;;;;3.28;2.97;;;;;;;;;;5022804;28;20467;-60
2022/01/31 12:53:22;;;;;;;4.05;3.75;;;;;;;;;;5019853;28;20148;-60
2022/01/31 12:56:08;;;;;;;3.42;3.13;;;;;;;;;;5021776;28;20061;-61
2022/01/31 12:58:49;;;;;;;3.58;3.28;;;;;;;;;;5019957;28;20104;-61
2022/01/31 13:01:14;;;;;;;;;;;;;;;;;;5020371;28;20163;-61
2022/01/31 13:03:43;;;;;;;3.20;2.90;;;;;;;;;;5021058;28;20502;-61
2022/01/31 13:06:35;;;;;;;3.47;3.17;;;;;;;;;;5019219;28;20034;-60
2022/01/31 13:09:08;;;;;;;3.08;2.78;;;;;;;;;;5020296;28;20025;-60
2022/01/31 13:11:34;;;;;;;3.28;2.97;;;;;;;;;;5016512;28;20467;-60
2022/01/31 13:14:04;;;;;;;3.00;2.70;;;;;;;;;;5019992;28;20493;-60
2022/01/31 13:16:51;;;;;;;3.67;3.38;;;;;;;;;;5021310;28;20033;-61
2022/01/31 13:19:20;;;;;;;3.67;3.38;;;;;;;;;;5022428;28;20106;-60
2022/01/31 13:21:47;;;;;;;3.50;3.20;;;;;;;;;;5020780;28;20546;-60
2022/01/31 13:24:12;;;;;;;3.40;3.10;;;;;;;;;;5021293;28;20464;-60
2022/01/31 13:26:52;;;;;;;3.80;3.50;;;;;;;;;;5022713;28;20026;-61
2022/01/31 13:29:31;;;;;;;3.78;3.47;;;;;;;;;;5017640;28;20179;-60
2022/01/31 13:31:57;;;;;;;4.05;3.75;;;;;;;;;;5018351;28;20098;-60
2022/01/31 13:34:53;;;;;;;3.47;3.17;;;;;;;;;;5020722;28;20038;-60
2022/01/31 13:37:34;;;;;;;3.78;3.47;;;;;;;;;;5014610;28;20132;-61
2022/01/31 13:40:32;;;;;;;3.78;3.47;;;;;;;;;;5019346;28;20057;-61
2022/01/31 13:43:02;;;;;;;3.90;3.50;;;;;;;;;;5020378;28;20119;-63
2022/01/31 13:45:36;;;;;;;3.72;3.42;;;;;;;;;;5020184;28;20030;-63
2022/01/31 13:48:08;;;;;;;3.38;3.08;;;;;;;;;;5018257;28;20041;-62
2022/01/31 13:50:41;;;;;;;5.05;3.50;;;;;;;;;;5020818;28;20033;-62
2022/01/31 13:53:09;;;;;;;3.22;2.92;;;;;;;;;;5017937;28;20022;-61
2022/01/31 13:55:41;;;;;;;3.35;3.05;;;;;;;;;;5018591;28;20042;-62
2022/01/31 13:58:07;;;;;;;3.75;3.45;;;;;;;;;;5022934;28;20140;-61
2022/01/31 14:00:34;;;;;;;3.53;3.22;;;;;;;;;;5020827;28;20042;-61
2022/01/31 14:03:13;;;;;;;3.72;3.42;;;;;;;;;;5017949;28;20479;-61
2022/01/31 14:05:46;;;;;;;3.33;3.03;;;;;;;;;;5021744;28;20033;-61
2022/01/31 14:08:14;;;;;;;3.67;3.38;;;;;;;;;;5021566;28;20372;-61
2022/01/31 14:10:43;;;;;;;4.57;4.15;;;;;;;;;;5020952;28;20037;-61
2022/01/31 14:13:12;;;;;;;3.45;3.15;;;;;;;;;;5019920;28;20360;-61
2022/01/31 14:15:50;;;;;;;3.72;3.33;;;;;;;;;;5020883;28;20127;-62
2022/01/31 14:18:19;;;;;;;3.92;3.63;;;;;;;;;;5017802;28;20123;-62
2022/01/31 14:20:46;;;;;;;3.58;3.28;;;;;;;;;;5018071;28;20094;-62
2022/01/31 14:23:12;;;;;;;4.10;3.70;;;;;;;;;;5018377;28;20096;-62
2022/01/31 14:25:40;;;;;;;3.65;3.35;;;;;;;;;;5022094;28;20087;-62
2022/01/31 14:28:06;;;;;;;3.60;3.30;;;;;;;;;;5021041;28;20037;-62
2022/01/31 14:30:34;;;;;;;4.03;3.40;;;;;;;;;;5019708;28;20134;-62
2022/01/31 14:33:08;;;;;;;4.03;3.63;;;;;;;;;;5018185;28;20057;-61
2022/01/31 14:35:34;;;;;;;3.58;3.28;;;;;;;;;;5016692;28;20034;-61
2022/01/31 14:38:24;;;;;;;3.50;3.20;;;;;;;;;;5019973;28;20026;-61
2022/01/31 14:47:15;;;;;;;3.50;3.20;;;;;;;;;;5014544;28;20065;-62
2022/01/31 14:48:57;;;;;;;3.70;3.40;;;;;;;;;;5017469;28;20033;-61
2022/01/31 14:51:28;;;;;;;3.38;3.08;;;;;;;;;;5017116;28;20379;-61
2022/01/31 14:54:02;;;;;;;3.80;3.50;;;;;;;;;;5017604;28;20038;-61
2022/01/31 14:56:28;;;;;;;3.17;2.88;;;;;;;;;;5017340;28;20518;-61
2022/01/31 14:58:53;;;;;;;3.65;3.35;;;;;;;;;;5019045;28;20045;-61
2022/01/31 15:01:19;;;;;;;3.58;3.28;;;;;;;;;;5018949;28;20029;-61
2022/01/31 15:03:44;;;;;;;3.40;3.10;;;;;;;;;;5018350;28;20375;-61
2022/01/31 15:06:10;;;;;;;3.47;3.17;;;;;;;;;;5015782;28;20116;-61
2022/01/31 15:08:35;;;;;;;3.78;3.47;;;;;;;;;;5015343;28;20033;-62
2022/01/31 15:11:01;;;;;;;4.20;3.80;;;;;;;;;;5012245;28;20060;-62
2022/01/31 15:13:27;;;;;;;3.42;3.13;;;;;;;;;;5016208;28;20138;-61
2022/01/31 15:15:54;;;;;;;3.83;3.53;;;;;;;;;;5010498;28;20037;-61